Time;durP1;ratioP1;P1;durP2;ratioP2;P2;SDS_P1;SDS_P2;PMS_P1;PMS_P2;Temp;Humidity;BMP_temperature;BMP_pressure;BME280_temperature;BME280_humidity;BME280_pressure;Samples;Min_cycle;Max_cycle;Signal;HPM_P1;HPM_P2
2022/11/02 00:00:16;;;;;;;19.40;13.57;;;12.00;99.90;;;;;;5113046;28;20468;-75
2022/11/02 00:02:41;;;;;;;20.48;15.27;;;12.00;99.90;;;;;;5112386;28;20127;-74
2022/11/02 00:05:11;;;;;;;21.48;15.02;;;12.00;99.90;;;;;;5112608;28;20089;-74
2022/11/02 00:07:37;;;;;;;24.92;15.32;;;12.00;99.90;;;;;;5111945;28;20592;-73
2022/11/02 00:10:03;;;;;;;23.50;15.98;;;12.00;99.90;;;;;;5112705;28;20020;-73
2022/11/02 00:12:28;;;;;;;21.85;15.25;;;12.00;99.90;;;;;;5111671;28;20102;-73
2022/11/02 00:14:54;;;;;;;27.90;16.58;;;12.00;99.90;;;;;;5111988;28;20062;-73
2022/11/02 00:17:20;;;;;;;22.73;15.73;;;12.00;99.90;;;;;;5112597;28;20059;-74
2022/11/02 00:19:45;;;;;;;23.42;16.13;;;12.00;99.90;;;;;;5112195;28;20038;-73
2022/11/02 00:22:11;;;;;;;23.15;16.52;;;12.00;99.90;;;;;;5112638;28;20049;-74
2022/11/02 00:24:37;;;;;;;23.98;16.23;;;12.00;99.90;;;;;;5110860;28;20118;-73
2022/11/02 00:27:02;;;;;;;28.38;16.30;;;12.00;99.90;;;;;;5112169;28;20028;-73
2022/11/02 00:29:28;;;;;;;21.23;16.08;;;12.00;99.90;;;;;;5111823;28;20054;-75
2022/11/02 00:31:54;;;;;;;26.23;17.10;;;12.00;99.90;;;;;;5112586;28;20120;-74
2022/11/02 00:34:20;;;;;;;22.02;16.63;;;12.00;99.90;;;;;;5112639;28;20085;-74
2022/11/02 00:36:45;;;;;;;27.45;17.52;;;12.00;99.90;;;;;;5114352;28;20048;-74
2022/11/02 00:39:11;;;;;;;28.02;19.00;;;12.00;99.90;;;;;;5116288;28;20073;-73
2022/11/02 00:41:37;;;;;;;27.42;17.95;;;12.00;99.90;;;;;;5115340;28;20039;-73
2022/11/02 00:44:03;;;;;;;27.30;18.00;;;12.00;99.90;;;;;;5115944;28;20028;-73
2022/11/02 00:46:28;;;;;;;24.52;18.02;;;12.00;99.90;;;;;;5115741;28;20027;-73
2022/11/02 00:48:54;;;;;;;25.88;18.50;;;12.00;99.90;;;;;;5115556;28;20028;-73
2022/11/02 00:51:20;;;;;;;27.13;19.20;;;12.00;99.90;;;;;;5115804;28;20063;-74
2022/11/02 00:53:45;;;;;;;30.00;18.58;;;12.00;99.90;;;;;;5115410;28;20366;-73
2022/11/02 00:56:11;;;;;;;29.65;18.88;;;12.00;99.90;;;;;;5115754;28;20053;-73
2022/11/02 00:58:36;;;;;;;32.40;18.65;;;12.00;99.90;;;;;;5115364;28;20032;-73
2022/11/02 01:01:06;;;;;;;29.80;19.48;;;12.00;99.90;;;;;;5115901;28;20492;-73
2022/11/02 01:03:32;;;;;;;27.75;18.88;;;12.00;99.90;;;;;;5115183;28;20563;-74
2022/11/02 01:05:57;;;;;;;25.55;19.13;;;12.00;99.90;;;;;;5115685;28;20111;-74
2022/11/02 01:08:23;;;;;;;27.35;19.00;;;12.00;99.90;;;;;;5115666;28;20031;-74
2022/11/02 01:10:49;;;;;;;27.50;19.67;;;12.00;99.90;;;;;;5115201;28;20027;-74
2022/11/02 01:13:15;;;;;;;28.23;18.73;;;12.00;99.90;;;;;;5115573;28;20024;-74
2022/11/02 01:15:41;;;;;;;26.30;18.85;;;12.00;99.90;;;;;;5113828;28;20075;-74
2022/11/02 01:18:08;;;;;;;29.63;18.35;;;12.00;99.90;;;;;;5115356;28;20032;-74
2022/11/02 01:20:33;;;;;;;31.75;18.20;;;12.00;99.90;;;;;;5114908;28;20028;-74
2022/11/02 01:22:59;;;;;;;25.02;17.73;;;12.00;99.90;;;;;;5115484;28;20026;-74
2022/11/02 01:25:25;;;;;;;23.88;16.63;;;12.00;99.90;;;;;;5115328;28;20024;-74
2022/11/02 01:27:50;;;;;;;22.80;15.82;;;12.00;99.90;;;;;;5115000;28;20028;-74
2022/11/02 01:30:16;;;;;;;23.05;16.35;;;12.00;99.90;;;;;;5114966;28;20032;-74
2022/11/02 01:32:41;;;;;;;25.70;15.40;;;12.00;99.90;;;;;;5114800;28;20028;-74
2022/11/02 01:35:09;;;;;;;25.35;17.45;;;12.00;99.90;;;;;;5114683;28;20058;-75
2022/11/02 01:37:34;;;;;;;24.48;16.90;;;12.00;99.90;;;;;;5114537;28;20130;-74
2022/11/02 01:40:00;;;;;;;26.65;17.15;;;12.00;99.90;;;;;;5114828;28;20487;-74
2022/11/02 01:42:27;;;;;;;23.80;17.33;;;12.00;99.90;;;;;;5115037;28;20102;-75
2022/11/02 01:44:53;;;;;;;24.30;16.13;;;12.00;99.90;;;;;;5114481;28;20019;-74
2022/11/02 01:47:30;;;;;;;25.80;17.40;;;12.00;99.90;;;;;;5113500;28;20038;-74
2022/11/02 01:50:03;;;;;;;22.75;16.52;;;12.00;99.90;;;;;;5115033;28;20059;-73
2022/11/02 01:52:35;;;;;;;23.38;17.10;;;12.00;99.90;;;;;;5114857;28;20030;-73
2022/11/02 01:55:24;;;;;;;22.65;16.85;;;12.00;99.90;;;;;;5114469;28;20023;-74
2022/11/02 01:58:00;;;;;;;22.75;16.70;;;12.00;99.90;;;;;;5114224;28;20089;-73
2022/11/02 02:00:26;;;;;;;25.05;17.90;;;11.90;99.90;;;;;;5114684;28;20036;-73
2022/11/02 02:03:11;;;;;;;23.30;16.48;;;12.00;99.90;;;;;;5113983;28;20026;-74
2022/11/02 02:05:47;;;;;;;25.27;17.05;;;12.00;99.90;;;;;;5114315;28;20015;-74
2022/11/02 02:08:16;;;;;;;22.67;16.00;;;11.90;99.90;;;;;;5114955;28;20023;-73
2022/11/02 02:10:42;;;;;;;30.17;17.13;;;11.90;99.90;;;;;;5112898;28;20486;-73
2022/11/02 02:13:08;;;;;;;27.73;17.20;;;11.90;99.90;;;;;;5114145;28;20024;-74
2022/11/02 02:15:56;;;;;;;23.15;15.98;;;11.90;99.90;;;;;;5113885;28;20070;-75
2022/11/02 02:18:54;;;;;;;24.55;16.40;;;11.90;99.90;;;;;;5114393;27;20106;-74
2022/11/02 02:21:44;;;;;;;22.70;16.25;;;11.90;99.90;;;;;;5109866;28;20047;-74
2022/11/02 02:24:48;;;;;;;25.65;17.45;;;11.90;99.90;;;;;;5113988;28;20077;-74
2022/11/02 02:27:22;;;;;;;24.67;16.42;;;11.90;99.90;;;;;;5114214;28;20024;-74
2022/11/02 02:30:08;;;;;;;24.15;16.58;;;11.90;99.90;;;;;;5113789;28;20379;-74
2022/11/02 02:32:42;;;;;;;27.23;16.88;;;11.90;99.90;;;;;;5113614;28;20371;-75
2022/11/02 02:35:11;;;;;;;29.05;17.73;;;11.90;99.90;;;;;;5112261;28;20048;-74
2022/11/02 02:37:59;;;;;;;23.95;16.65;;;11.90;99.90;;;;;;5113538;28;20043;-74
2022/11/02 02:40:38;;;;;;;26.65;17.13;;;11.90;99.90;;;;;;5114050;28;20038;-74
2022/11/02 02:43:23;;;;;;;24.92;17.17;;;11.90;99.90;;;;;;5113969;28;20023;-74
2022/11/02 02:46:00;;;;;;;24.60;16.08;;;11.90;99.90;;;;;;5112107;28;20379;-75
2022/11/02 02:48:26;;;;;;;27.15;16.67;;;11.90;99.90;;;;;;5113875;28;20391;-74
2022/11/02 02:51:13;;;;;;;21.70;16.15;;;11.90;99.90;;;;;;5113342;28;20027;-74
2022/11/02 02:53:49;;;;;;;23.58;16.58;;;11.90;99.90;;;;;;5113659;28;20028;-74
2022/11/02 02:56:18;;;;;;;22.00;16.75;;;11.80;99.90;;;;;;5113747;28;20019;-74
2022/11/02 02:58:51;;;;;;;23.90;15.45;;;11.90;99.90;;;;;;5112844;28;20028;-74
2022/11/02 03:01:18;;;;;;;23.77;16.38;;;11.80;99.90;;;;;;5113624;27;20032;-74
2022/11/02 03:03:45;;;;;;;24.70;15.90;;;11.90;99.90;;;;;;5113171;28;20031;-74
2022/11/02 03:06:23;;;;;;;22.02;15.68;;;11.80;99.90;;;;;;5112273;28;20110;-74
2022/11/02 03:09:16;;;;;;;22.95;15.32;;;11.80;99.90;;;;;;5113170;28;20024;-74
2022/11/02 03:12:15;;;;;;;19.45;14.57;;;11.80;99.90;;;;;;5112762;28;20024;-74
2022/11/02 03:14:43;;;;;;;21.30;15.75;;;11.80;99.90;;;;;;5112929;28;20103;-74
2022/11/02 03:17:27;;;;;;;21.20;15.07;;;11.80;99.90;;;;;;5113244;28;20047;-74
2022/11/02 03:20:24;;;;;;;20.15;14.85;;;11.80;99.90;;;;;;5112606;28;20041;-74
2022/11/02 03:23:14;;;;;;;21.58;14.82;;;11.80;99.90;;;;;;5112845;28;20080;-74
2022/11/02 03:26:11;;;;;;;23.33;15.40;;;11.80;99.90;;;;;;5112891;28;20551;-74
2022/11/02 03:29:04;;;;;;;22.63;14.98;;;11.80;99.90;;;;;;5112975;28;20027;-77
2022/11/02 03:31:54;;;;;;;27.05;15.57;;;11.80;99.90;;;;;;5112898;28;20029;-74
2022/11/02 03:34:27;;;;;;;23.15;14.82;;;11.80;99.90;;;;;;5113472;28;20044;-74
2022/11/02 03:37:24;;;;;;;26.83;15.90;;;11.80;99.90;;;;;;5112642;28;20372;-74
2022/11/02 03:39:57;;;;;;;26.25;15.52;;;11.80;99.90;;;;;;5112328;28;20081;-74
2022/11/02 03:42:26;;;;;;;23.60;15.85;;;11.70;99.90;;;;;;5113201;28;20036;-74
2022/11/02 03:45:04;;;;;;;23.70;15.57;;;11.80;99.90;;;;;;5112362;28;20042;-73
2022/11/02 03:47:34;;;;;;;24.55;15.45;;;11.80;99.90;;;;;;5113179;28;20372;-74
2022/11/02 03:50:01;;;;;;;24.20;15.98;;;11.80;99.90;;;;;;5112646;28;20460;-74
2022/11/02 03:52:30;;;;;;;24.08;15.73;;;11.80;99.90;;;;;;5113038;28;20027;-73
2022/11/02 03:55:12;;;;;;;22.90;15.30;;;11.80;99.90;;;;;;5111283;28;20379;-74
2022/11/02 03:57:43;;;;;;;22.02;15.82;;;11.80;99.90;;;;;;5112946;28;20106;-73
2022/11/02 04:00:11;;;;;;;21.75;15.40;;;11.80;99.90;;;;;;5112628;28;20495;-73
2022/11/02 04:02:39;;;;;;;21.73;15.70;;;11.80;99.90;;;;;;5112432;27;20031;-72
2022/11/02 04:05:05;;;;;;;26.80;16.00;;;11.80;99.90;;;;;;5112876;28;20088;-74
2022/11/02 04:08:19;;;;;;;23.55;15.77;;;11.80;99.90;;;;;;5112563;28;20460;-74
2022/11/02 04:10:20;;;;;;;22.10;15.40;;;11.80;99.90;;;;;;5111910;28;20027;-73
2022/11/02 04:15:30;;;;;;;23.40;15.27;;;11.80;99.90;;;;;;5116493;28;20039;-74
2022/11/02 04:20:40;;;;;;;24.95;15.50;;;11.90;99.90;;;;;;5116808;28;20419;-74
2022/11/02 04:25:53;;;;;;;23.98;15.48;;;11.80;99.90;;;;;;5115959;28;20111;-75
2022/11/02 04:28:20;;;;;;;20.73;15.02;;;11.80;99.90;;;;;;5116697;27;20106;-74
2022/11/02 04:30:46;;;;;;;28.60;16.48;;;11.80;99.90;;;;;;5115989;28;20352;-75
2022/11/02 04:36:05;;;;;;;25.20;16.35;;;11.80;99.90;;;;;;5115719;28;20038;-74
2022/11/02 04:38:40;;;;;;;21.77;15.32;;;11.80;99.90;;;;;;5116145;28;20062;-74
2022/11/02 04:43:52;;;;;;;22.15;15.38;;;11.80;99.90;;;;;;5115875;28;20081;-74
2022/11/02 04:46:18;;;;;;;23.13;16.23;;;11.80;99.90;;;;;;5116150;28;20388;-74
2022/11/02 04:48:43;;;;;;;23.63;15.55;;;11.90;99.90;;;;;;5116657;28;20039;-75
2022/11/02 04:51:09;;;;;;;22.38;14.75;;;11.90;99.90;;;;;;5116066;28;20020;-75
2022/11/02 04:53:35;;;;;;;24.13;15.15;;;11.90;99.90;;;;;;5115786;28;20387;-74
2022/11/02 04:56:00;;;;;;;30.67;15.70;;;11.80;99.90;;;;;;5115525;28;20035;-74
2022/11/02 04:58:26;;;;;;;20.40;14.80;;;11.80;99.90;;;;;;5115993;28;20024;-74
2022/11/02 05:00:52;;;;;;;20.77;15.70;;;11.80;99.90;;;;;;5115174;28;20106;-74
2022/11/02 05:03:17;;;;;;;30.85;17.05;;;11.80;99.90;;;;;;5115842;28;20035;-74
2022/11/02 05:05:43;;;;;;;25.50;15.35;;;11.80;99.90;;;;;;5115453;28;20468;-74
2022/11/02 05:08:09;;;;;;;28.15;15.63;;;11.90;99.90;;;;;;5115224;28;20081;-74
2022/11/02 05:10:34;;;;;;;23.80;15.32;;;11.90;99.90;;;;;;5114289;28;20023;-74
2022/11/02 05:13:01;;;;;;;32.50;16.38;;;11.80;99.90;;;;;;5115166;28;20030;-74
2022/11/02 05:15:27;;;;;;;25.77;15.82;;;11.90;99.90;;;;;;5115356;27;20032;-74
2022/11/02 05:17:52;;;;;;;23.40;16.20;;;11.90;99.90;;;;;;5115117;28;20028;-74
2022/11/02 05:20:18;;;;;;;26.75;15.55;;;11.80;99.90;;;;;;5115496;28;20502;-75
2022/11/02 05:22:44;;;;;;;26.55;16.83;;;11.90;99.90;;;;;;5115566;28;20084;-73
2022/11/02 05:25:10;;;;;;;28.95;16.25;;;11.90;99.90;;;;;;5114645;28;20055;-74
2022/11/02 05:27:37;;;;;;;24.27;16.27;;;11.80;99.90;;;;;;5115418;28;20106;-74
2022/11/02 05:30:04;;;;;;;31.67;17.45;;;11.90;99.90;;;;;;5114930;28;20027;-75
2022/11/02 05:32:29;;;;;;;30.35;17.65;;;11.90;99.90;;;;;;5115147;28;20032;-75
2022/11/02 05:34:55;;;;;;;29.38;17.52;;;11.90;99.90;;;;;;5114910;28;20052;-74
2022/11/02 05:37:21;;;;;;;23.88;16.92;;;11.90;99.90;;;;;;5115146;28;20072;-73
2022/11/02 05:39:46;;;;;;;28.85;18.27;;;11.90;99.90;;;;;;5114968;28;20034;-74
2022/11/02 05:42:12;;;;;;;32.35;18.90;;;11.90;99.90;;;;;;5115069;28;20034;-73
2022/11/02 05:44:38;;;;;;;29.67;18.98;;;11.90;99.90;;;;;;5115011;28;20470;-73
2022/11/02 05:47:04;;;;;;;30.98;17.70;;;11.90;99.90;;;;;;5114480;28;20030;-73
2022/11/02 05:49:29;;;;;;;26.45;17.65;;;11.90;99.90;;;;;;5114783;27;20041;-73
2022/11/02 05:51:55;;;;;;;32.47;18.27;;;11.90;99.90;;;;;;5113188;28;20476;-73
2022/11/02 05:54:21;;;;;;;29.33;17.48;;;11.90;99.90;;;;;;5115021;28;20028;-73
2022/11/02 05:56:47;;;;;;;27.52;17.65;;;11.90;99.90;;;;;;5114638;28;20387;-73
2022/11/02 05:59:12;;;;;;;26.48;17.85;;;11.90;99.90;;;;;;5114225;28;20475;-73
2022/11/02 06:01:38;;;;;;;30.35;19.25;;;11.90;99.90;;;;;;5114525;28;20031;-73
2022/11/02 06:04:04;;;;;;;27.13;17.83;;;11.90;99.90;;;;;;5113104;28;20016;-73
2022/11/02 06:06:30;;;;;;;25.95;17.88;;;11.90;99.90;;;;;;5113913;28;20027;-74
2022/11/02 06:08:56;;;;;;;27.42;17.30;;;12.00;99.90;;;;;;5113980;28;20357;-75
2022/11/02 06:11:21;;;;;;;27.92;17.55;;;12.00;99.90;;;;;;5114314;28;20023;-74
2022/11/02 06:13:50;;;;;;;28.20;17.30;;;12.00;99.90;;;;;;5114099;28;20428;-74
2022/11/02 06:16:16;;;;;;;25.58;16.80;;;12.00;99.90;;;;;;5114304;28;20031;-74
2022/11/02 06:18:42;;;;;;;28.52;17.45;;;12.00;99.90;;;;;;5114009;28;20375;-74
2022/11/02 06:21:09;;;;;;;27.48;18.52;;;12.00;99.90;;;;;;5113817;28;20106;-74
2022/11/02 06:23:35;;;;;;;29.67;19.00;;;12.00;99.90;;;;;;5114239;28;20114;-74
2022/11/02 06:26:01;;;;;;;27.10;18.52;;;12.00;99.90;;;;;;5113398;28;20497;-74
2022/11/02 06:28:28;;;;;;;35.85;20.10;;;12.00;99.90;;;;;;5114201;28;20036;-74
2022/11/02 06:30:54;;;;;;;31.67;19.10;;;12.00;99.90;;;;;;5112766;28;20036;-74
2022/11/02 06:33:20;;;;;;;30.23;19.15;;;12.00;99.90;;;;;;5113072;28;20039;-74
2022/11/02 06:35:48;;;;;;;31.00;20.02;;;12.00;99.90;;;;;;5114279;28;20039;-74
2022/11/02 06:38:14;;;;;;;33.35;20.30;;;12.00;99.90;;;;;;5113116;28;20036;-74
2022/11/02 06:40:40;;;;;;;31.13;20.52;;;12.00;99.90;;;;;;5113889;28;20035;-73
2022/11/02 06:43:06;;;;;;;31.25;20.65;;;12.10;99.90;;;;;;5113171;28;20030;-74
2022/11/02 06:45:31;;;;;;;28.40;18.65;;;12.10;99.90;;;;;;5113385;28;20468;-73
2022/11/02 06:47:57;;;;;;;30.75;20.02;;;12.10;99.90;;;;;;5094711;28;20088;-74
2022/11/02 06:50:23;;;;;;;33.42;21.02;;;12.20;99.90;;;;;;5113632;28;20024;-73
2022/11/02 06:52:50;;;;;;;31.25;19.60;;;12.20;99.90;;;;;;5113447;28;20076;-73
2022/11/02 06:55:16;;;;;;;26.40;18.80;;;12.30;99.90;;;;;;5113187;28;20057;-73
2022/11/02 06:57:43;;;;;;;31.70;19.67;;;12.30;99.90;;;;;;5113628;28;20032;-74
2022/11/02 07:00:11;;;;;;;33.15;18.92;;;12.30;99.90;;;;;;5112810;28;20389;-74
2022/11/02 07:02:38;;;;;;;28.92;17.77;;;12.40;99.90;;;;;;5113477;28;20031;-74
2022/11/02 07:05:04;;;;;;;31.73;18.95;;;12.40;99.90;;;;;;5112671;28;20027;-74
2022/11/02 07:07:30;;;;;;;27.65;19.73;;;12.50;99.90;;;;;;5113137;28;20432;-74
2022/11/02 07:09:55;;;;;;;31.33;18.75;;;12.50;99.90;;;;;;5112919;28;20066;-74
2022/11/02 07:12:21;;;;;;;26.70;18.67;;;12.60;99.90;;;;;;5113136;28;20076;-74
2022/11/02 07:14:47;;;;;;;27.67;18.95;;;12.60;99.90;;;;;;5113074;28;20050;-74
2022/11/02 07:17:12;;;;;;;27.08;19.30;;;12.60;99.90;;;;;;5112687;28;20031;-74
2022/11/02 07:19:38;;;;;;;26.13;19.90;;;12.70;99.90;;;;;;5113126;28;20383;-74
2022/11/02 07:22:04;;;;;;;27.10;18.58;;;12.90;99.90;;;;;;5112509;28;20431;-74
2022/11/02 07:24:30;;;;;;;32.25;19.27;;;13.00;99.90;;;;;;5113014;28;20062;-74
2022/11/02 07:26:56;;;;;;;32.05;21.02;;;13.20;99.90;;;;;;5112633;28;20051;-75
2022/11/02 07:29:21;;;;;;;31.33;20.02;;;13.40;99.90;;;;;;5112954;28;20027;-74
2022/11/02 07:31:47;;;;;;;28.55;18.63;;;13.50;99.90;;;;;;5112673;28;20106;-74
2022/11/02 07:34:12;;;;;;;25.67;17.88;;;13.60;99.90;;;;;;5112354;28;20082;-74
2022/11/02 07:36:38;;;;;;;26.60;16.70;;;13.60;99.90;;;;;;5112902;28;20448;-74
2022/11/02 07:39:06;;;;;;;28.27;18.02;;;13.90;99.90;;;;;;5110955;28;20365;-74
2022/11/02 07:41:32;;;;;;;30.02;16.80;;;14.20;99.90;;;;;;5112734;28;20411;-74
2022/11/02 07:43:57;;;;;;;25.45;16.63;;;14.20;99.90;;;;;;5112364;28;20518;-74
2022/11/02 07:46:23;;;;;;;25.83;17.35;;;14.30;99.90;;;;;;5114838;28;20024;-75
2022/11/02 07:48:48;;;;;;;22.92;15.23;;;14.30;99.90;;;;;;5117118;28;20027;-74
2022/11/02 07:51:14;;;;;;;24.88;14.73;;;14.50;99.90;;;;;;5117035;28;20354;-75
2022/11/02 07:53:40;;;;;;;20.88;13.52;;;14.60;99.90;;;;;;5115924;28;20357;-75
2022/11/02 07:56:06;;;;;;;20.80;13.25;;;14.80;99.90;;;;;;5116492;28;20050;-75
2022/11/02 07:58:32;;;;;;;18.60;12.48;;;15.10;99.90;;;;;;5116363;28;20031;-75
2022/11/02 08:00:59;;;;;;;23.10;12.13;;;15.20;99.90;;;;;;5116521;28;20031;-76
2022/11/02 08:03:25;;;;;;;20.85;12.00;;;15.50;99.90;;;;;;5116658;28;20375;-76
2022/11/02 08:05:51;;;;;;;15.20;10.50;;;15.60;99.90;;;;;;5116968;28;20016;-76
2022/11/02 08:08:19;;;;;;;18.50;11.00;;;15.80;99.90;;;;;;5116434;27;20110;-74
2022/11/02 08:10:47;;;;;;;26.65;11.02;;;16.00;99.90;;;;;;5116746;28;20107;-75
2022/11/02 08:13:15;;;;;;;16.98;10.15;;;16.20;99.90;;;;;;5115992;28;20149;-74
2022/11/02 08:15:41;;;;;;;15.23;9.80;;;16.40;99.90;;;;;;5096269;28;20020;-74
2022/11/02 08:18:10;;;;;;;15.60;9.95;;;16.40;99.90;;;;;;5095419;28;20035;-74
2022/11/02 08:20:36;;;;;;;17.45;9.98;;;16.50;99.90;;;;;;5096250;28;20460;-74
2022/11/02 08:23:02;;;;;;;18.70;10.35;;;16.60;99.90;;;;;;5095678;28;20028;-75
2022/11/02 08:25:29;;;;;;;13.68;8.70;;;16.70;99.90;;;;;;5096103;28;20090;-74
2022/11/02 08:27:58;;;;;;;20.02;9.07;;;16.90;99.90;;;;;;5096013;28;20028;-74
2022/11/02 08:30:26;;;;;;;15.73;9.02;;;17.00;99.90;;;;;;5095929;28;20082;-74
2022/11/02 08:32:51;;;;;;;14.57;8.50;;;17.20;99.90;;;;;;5095422;28;20028;-74
2022/11/02 08:35:17;;;;;;;10.43;6.95;;;17.30;99.90;;;;;;5095331;28;20084;-75
2022/11/02 08:37:42;;;;;;;13.25;6.53;;;17.50;99.90;;;;;;5095799;28;20035;-75
2022/11/02 08:40:09;;;;;;;18.08;6.32;;;17.70;99.90;;;;;;5095408;28;20043;-75
2022/11/02 08:42:37;;;;;;;10.80;5.72;;;17.80;99.90;;;;;;5095490;28;20059;-74
2022/11/02 08:45:07;;;;;;;10.45;5.65;;;17.90;99.90;;;;;;5095233;28;20020;-74
2022/11/02 08:47:32;;;;;;;11.52;5.43;;;18.00;99.90;;;;;;5095736;28;20054;-74
2022/11/02 08:49:58;;;;;;;9.68;5.25;;;18.20;99.90;;;;;;5095591;28;20028;-76
2022/11/02 08:52:23;;;;;;;12.90;4.65;;;18.30;98.60;;;;;;5094947;28;20084;-75
2022/11/02 08:54:49;;;;;;;12.93;4.50;;;18.40;97.90;;;;;;5095458;28;20024;-75
2022/11/02 08:57:15;;;;;;;9.48;4.20;;;18.50;98.00;;;;;;5094429;28;20028;-75
2022/11/02 08:59:40;;;;;;;9.63;3.88;;;18.60;97.00;;;;;;5095422;28;20036;-75
2022/11/02 09:02:07;;;;;;;8.50;4.43;;;18.80;98.20;;;;;;5095081;28;20081;-76
2022/11/02 09:04:33;;;;;;;7.85;3.42;;;18.90;96.90;;;;;;5095265;28;20024;-75
2022/11/02 09:06:58;;;;;;;7.78;3.67;;;19.00;95.50;;;;;;5095013;28;20426;-75
2022/11/02 09:09:24;;;;;;;7.10;3.58;;;19.20;95.10;;;;;;5094813;28;20028;-74
2022/11/02 09:11:50;;;;;;;8.57;3.00;;;19.30;94.80;;;;;;5095179;28;20032;-74
2022/11/02 09:14:15;;;;;;;10.07;3.83;;;19.30;94.20;;;;;;5094401;28;20031;-75
2022/11/02 09:16:41;;;;;;;6.38;3.88;;;19.40;93.70;;;;;;5094927;28;20461;-75
2022/11/02 09:19:06;;;;;;;6.47;2.92;;;19.50;92.20;;;;;;5094703;28;20028;-75
2022/11/02 09:21:32;;;;;;;5.97;2.90;;;19.60;91.90;;;;;;5094992;28;20115;-75
2022/11/02 09:23:58;;;;;;;7.20;3.00;;;19.70;92.60;;;;;;5094912;28;20024;-75
2022/11/02 09:26:23;;;;;;;5.18;2.55;;;19.80;91.40;;;;;;5094331;28;20061;-74
2022/11/02 09:28:49;;;;;;;8.13;3.17;;;19.90;91.50;;;;;;5094844;28;20055;-74
2022/11/02 09:31:14;;;;;;;3.80;2.38;;;20.00;90.50;;;;;;5094280;28;20055;-74
2022/11/02 09:33:40;;;;;;;7.90;2.65;;;20.00;89.30;;;;;;5094791;28;20053;-75
2022/11/02 09:36:06;;;;;;;5.63;2.47;;;20.10;88.20;;;;;;5094342;28;20035;-74
2022/11/02 09:38:32;;;;;;;5.03;2.20;;;20.10;85.60;;;;;;5094389;28;20023;-75
2022/11/02 09:40:58;;;;;;;4.75;2.42;;;20.10;87.10;;;;;;5094567;28;20166;-74
2022/11/02 09:43:35;;;;;;;4.75;2.28;;;20.00;83.60;;;;;;5094165;28;20059;-74
2022/11/02 09:46:07;;;;;;;6.13;3.03;;;20.00;83.30;;;;;;5094633;28;20376;-74
2022/11/02 09:48:44;;;;;;;5.90;1.90;;;20.10;84.10;;;;;;5094451;28;20079;-75
2022/11/02 09:51:12;;;;;;;8.18;3.53;;;20.00;82.80;;;;;;5093937;28;20380;-75
2022/11/02 09:53:54;;;;;;;7.25;2.70;;;20.00;84.20;;;;;;5094283;28;20036;-75
2022/11/02 09:56:20;;;;;;;6.72;2.38;;;20.10;83.10;;;;;;5093773;28;20024;-75
2022/11/02 09:59:09;;;;;;;6.35;2.28;;;20.10;82.90;;;;;;5094165;28;20077;-74
2022/11/02 10:02:05;;;;;;;8.95;2.65;;;20.10;81.30;;;;;;5093906;28;20040;-74
2022/11/02 10:04:55;;;;;;;6.30;2.35;;;20.10;81.10;;;;;;5093800;28;20028;-75
2022/11/02 10:07:30;;;;;;;3.47;2.28;;;20.10;81.00;;;;;;5093680;28;20054;-75
2022/11/02 10:10:00;;;;;;;8.07;2.60;;;20.10;81.50;;;;;;5112385;28;20055;-75
2022/11/02 10:12:45;;;;;;;7.15;2.30;;;20.10;80.70;;;;;;5113975;28;20024;-76
2022/11/02 10:15:21;;;;;;;6.90;2.53;;;20.10;79.10;;;;;;5113698;28;20089;-76
2022/11/02 10:17:52;;;;;;;7.50;2.30;;;20.10;81.00;;;;;;5114245;28;20413;-75
2022/11/02 10:20:43;;;;;;;4.60;2.00;;;20.10;80.20;;;;;;5113651;28;20091;-75
2022/11/02 10:23:17;;;;;;;5.63;1.73;;;20.10;79.10;;;;;;5113933;28;20058;-76
2022/11/02 10:25:44;;;;;;;5.13;2.13;;;20.10;79.50;;;;;;5114569;28;20020;-75
2022/11/02 10:28:34;;;;;;;9.43;2.75;;;20.20;80.00;;;;;;5113404;28;20432;-75
2022/11/02 10:31:03;;;;;;;5.80;2.00;;;20.20;78.10;;;;;;5113651;28;20082;-76
2022/11/02 10:33:30;;;;;;;5.45;2.08;;;20.10;78.00;;;;;;5113427;28;20381;-74
2022/11/02 10:36:23;;;;;;;6.10;2.38;;;20.20;77.80;;;;;;5113503;28;20023;-75
2022/11/02 10:39:23;;;;;;;4.65;1.80;;;20.10;76.60;;;;;;5113848;28;20471;-75
2022/11/02 10:41:58;;;;;;;5.10;2.00;;;20.10;76.30;;;;;;5089618;28;20089;-76
2022/11/02 10:45:00;;;;;;;6.15;2.40;;;20.10;76.10;;;;;;5113450;28;20027;-75
2022/11/02 10:47:56;;;;;;;5.53;2.10;;;20.00;74.60;;;;;;5112079;28;20020;-75
2022/11/02 10:50:52;;;;;;;4.57;2.17;;;19.90;73.70;;;;;;5112142;28;20027;-75
2022/11/02 10:53:20;;;;;;;8.90;2.10;;;19.90;74.10;;;;;;5113287;28;20035;-75
2022/11/02 10:56:06;;;;;;;2.50;2.13;;;19.90;74.00;;;;;;5113665;28;20020;-75
2022/11/02 10:58:32;;;;;;;6.88;2.00;;;19.90;74.00;;;;;;5113000;28;20031;-74
2022/11/02 11:01:07;;;;;;;3.28;1.80;;;19.90;73.90;;;;;;5111921;28;20464;-75
2022/11/02 11:03:32;;;;;;;6.55;2.50;;;20.00;72.90;;;;;;5112844;28;20028;-74
2022/11/02 11:06:04;;;;;;;4.63;2.13;;;19.90;71.90;;;;;;5111643;28;20023;-74
2022/11/02 11:08:30;;;;;;;7.03;1.92;;;19.90;72.30;;;;;;5112810;28;20032;-75
2022/11/02 11:11:10;;;;;;;3.58;1.65;;;19.90;72.30;;;;;;5113552;28;20034;-75
2022/11/02 11:13:36;;;;;;;4.40;1.90;;;20.00;72.20;;;;;;5112979;28;20024;-75
2022/11/02 11:16:02;;;;;;;7.82;2.05;;;19.90;71.00;;;;;;5113280;28;20031;-74
2022/11/02 11:18:28;;;;;;;4.00;1.85;;;19.90;71.30;;;;;;5112612;28;20321;-75
2022/11/02 11:20:55;;;;;;;3.50;2.22;;;19.90;71.10;;;;;;5113275;28;20034;-75
2022/11/02 11:23:24;;;;;;;3.20;1.50;;;19.80;69.50;;;;;;5112702;28;20089;-75
2022/11/02 11:26:04;;;;;;;5.70;2.58;;;19.80;69.10;;;;;;5113285;27;20031;-75
2022/11/02 11:28:41;;;;;;;8.00;2.15;;;19.80;69.10;;;;;;5112452;28;20468;-75
2022/11/02 11:31:14;;;;;;;4.97;1.98;;;19.90;69.30;;;;;;5113057;28;20024;-74
2022/11/02 11:33:50;;;;;;;2.88;1.70;;;19.90;69.10;;;;;;5112768;28;20067;-76
2022/11/02 11:36:31;;;;;;;3.92;2.05;;;19.90;69.30;;;;;;5112707;28;20080;-75
2022/11/02 11:39:29;;;;;;;;;;;20.00;68.60;;;;;;5113288;28;20085;-75
2022/11/02 11:41:56;;;;;;;6.50;2.38;;;20.10;69.40;;;;;;5078439;28;20317;-76
2022/11/02 11:44:23;;;;;;;3.78;2.05;;;20.10;68.50;;;;;;5112657;28;20016;-74
2022/11/02 11:46:52;;;;;;;3.33;1.85;;;20.10;67.10;;;;;;5112697;28;20353;-76
2022/11/02 11:49:25;;;;;;;4.50;1.83;;;20.00;68.30;;;;;;5112401;28;20028;-74
2022/11/02 11:51:53;;;;;;;7.85;2.05;;;20.00;67.20;;;;;;5112590;28;20024;-73
2022/11/02 11:54:22;;;;;;;4.40;1.98;;;20.00;67.00;;;;;;5112365;28;20334;-74
2022/11/02 11:56:50;;;;;;;4.95;2.10;;;20.00;65.80;;;;;;5112721;28;20031;-75
2022/11/02 11:59:23;;;;;;;4.13;1.55;;;20.00;65.10;;;;;;5110970;28;20023;-75
2022/11/02 12:01:53;;;;;;;5.07;1.92;;;20.00;65.20;;;;;;5112516;28;20357;-74
2022/11/02 12:04:32;;;;;;;2.53;1.70;;;20.00;63.80;;;;;;5111992;28;20038;-74
2022/11/02 12:07:34;;;;;;;6.05;1.83;;;20.00;63.20;;;;;;5112319;28;20039;-74
2022/11/02 12:10:13;;;;;;;2.50;1.60;;;20.00;62.80;;;;;;5112869;28;20405;-74
2022/11/02 12:13:00;;;;;;;4.18;2.03;;;20.00;62.90;;;;;;5112216;28;20048;-74
2022/11/02 12:15:44;;;;;;;8.23;2.83;;;20.00;62.60;;;;;;5112068;28;20023;-75
2022/11/02 12:18:29;;;;;;;3.95;1.60;;;19.90;63.30;;;;;;5112921;28;20023;-74
2022/11/02 12:21:32;;;;;;;6.68;1.85;;;19.90;63.50;;;;;;5113043;28;20034;-75
2022/11/02 12:24:25;;;;;;;3.55;1.55;;;19.90;60.90;;;;;;5112177;28;20392;-74
2022/11/02 12:27:25;;;;;;;4.45;1.80;;;19.70;59.20;;;;;;5112555;28;20090;-74
2022/11/02 12:30:09;;;;;;;3.30;1.50;;;19.70;59.00;;;;;;5112685;28;20028;-75
2022/11/02 12:33:06;;;;;;;6.75;1.83;;;19.60;59.70;;;;;;5114185;28;20263;-74
2022/11/02 12:35:34;;;;;;;5.38;1.70;;;19.50;59.90;;;;;;5115911;28;20118;-75
2022/11/02 12:38:28;;;;;;;6.13;1.70;;;19.50;60.70;;;;;;5115851;28;20139;-75
2022/11/02 12:41:18;;;;;;;3.30;1.60;;;19.50;60.50;;;;;;5116010;28;20047;-74
2022/11/02 12:43:46;;;;;;;3.20;1.80;;;19.40;60.50;;;;;;5116438;28;20105;-75
2022/11/02 12:46:22;;;;;;;5.13;1.70;;;19.40;60.10;;;;;;5116103;28;20024;-74
2022/11/02 12:49:04;;;;;;;3.83;2.00;;;19.30;59.90;;;;;;5114938;28;20467;-74
2022/11/02 12:51:38;;;;;;;5.40;1.70;;;19.30;59.90;;;;;;5115584;28;20055;-74
2022/11/02 12:54:08;;;;;;;6.72;2.45;;;19.30;59.60;;;;;;5115874;28;20504;-73
2022/11/02 12:56:39;;;;;;;3.08;1.55;;;19.20;59.80;;;;;;5115906;28;20077;-73
2022/11/02 12:59:05;;;;;;;5.43;1.95;;;19.10;60.10;;;;;;5115777;28;20028;-74
2022/11/02 13:01:37;;;;;;;4.38;1.70;;;19.00;59.70;;;;;;5115382;28;20100;-74
2022/11/02 13:04:14;;;;;;;4.18;1.65;;;19.00;60.00;;;;;;5116519;28;20027;-73
2022/11/02 13:06:47;;;;;;;4.88;1.73;;;18.90;59.60;;;;;;5116826;28;20084;-73